createdAt,value
2018-05-10T00:00:14.924Z,8.70
2018-05-10T00:02:46.581Z,10.27
2018-05-10T00:05:16.703Z,10.03
2018-05-10T00:07:47.715Z,8.60
2018-05-10T00:10:18.247Z,10.23
2018-05-10T00:12:49.104Z,10.27
2018-05-10T00:15:18.857Z,10.90
2018-05-10T00:17:48.944Z,9.93
2018-05-10T00:20:19.253Z,9.77
2018-05-10T00:22:48.999Z,10.20
2018-05-10T00:25:19.848Z,13.10
2018-05-10T00:27:50.727Z,9.53
2018-05-10T00:30:20.960Z,9.83
2018-05-10T00:32:50.679Z,13.33
2018-05-10T00:35:21.508Z,11.37
2018-05-10T00:37:51.275Z,9.57
2018-05-10T00:40:21.340Z,10.03
2018-05-10T00:42:51.467Z,13.33
2018-05-10T00:45:21.601Z,10.63
2018-05-10T00:47:51.707Z,8.70
2018-05-10T00:50:21.823Z,10.83
2018-05-10T00:52:53.396Z,9.27
2018-05-10T00:55:24.102Z,8.17
2018-05-10T00:57:55.148Z,7.40
2018-05-10T01:00:25.302Z,7.43
2018-05-10T01:02:56.424Z,10.10
2018-05-10T01:05:26.600Z,10.33
2018-05-10T01:07:56.878Z,10.67
2018-05-10T01:10:26.575Z,9.67
2018-05-10T01:12:56.846Z,8.70
2018-05-10T01:15:27.279Z,8.70
2018-05-10T01:17:57.340Z,8.87
2018-05-10T01:20:27.579Z,8.87
2018-05-10T01:22:58.815Z,9.47
2018-05-10T01:25:29.802Z,7.87
2018-05-10T01:28:00.508Z,11.03
2018-05-10T01:30:31.235Z,8.07
2018-05-10T01:33:01.356Z,7.57
2018-05-10T01:35:42.222Z,9.93
2018-05-10T01:38:11.974Z,8.43
2018-05-10T01:40:42.552Z,6.87
2018-05-10T01:43:12.391Z,6.70
2018-05-10T01:45:42.115Z,7.90
2018-05-10T01:48:12.716Z,9.97
2018-05-10T01:50:42.775Z,7.37
2018-05-10T01:53:13.461Z,6.40
2018-05-10T01:55:43.555Z,7.27
2018-05-10T01:58:13.319Z,8.97
2018-05-10T02:00:43.736Z,11.47
2018-05-10T02:03:15.326Z,8.77
2018-05-10T02:05:45.395Z,9.93
2018-05-10T02:08:15.105Z,8.50
2018-05-10T02:10:45.099Z,9.17
2018-05-10T02:13:16.142Z,7.57
2018-05-10T02:15:48.121Z,6.93
2018-05-10T02:18:18.556Z,6.47
2018-05-10T02:20:48.610Z,6.63
2018-05-10T02:23:18.332Z,8.63
2018-05-10T02:25:48.405Z,7.43
2018-05-10T02:28:18.472Z,6.47
2018-05-10T02:30:48.543Z,7.47
2018-05-10T02:33:19.899Z,7.53
2018-05-10T02:35:50.268Z,8.20
2018-05-10T02:38:20.535Z,8.63
2018-05-10T02:40:50.659Z,7.13
2018-05-10T02:43:20.768Z,8.67
2018-05-10T02:45:51.068Z,6.73
2018-05-10T02:48:22.199Z,6.33
2018-05-10T02:50:52.654Z,6.80
2018-05-10T02:53:24.024Z,6.90
2018-05-10T02:55:55.064Z,6.97
2018-05-10T02:58:24.838Z,7.33
2018-05-10T03:00:56.144Z,9.17
2018-05-10T03:03:26.248Z,7.73
2018-05-10T03:05:56.368Z,9.60
2018-05-10T03:08:26.644Z,8.93
2018-05-10T03:10:56.503Z,8.63
2018-05-10T03:13:26.211Z,7.80
2018-05-10T03:15:56.225Z,8.33
2018-05-10T03:18:26.356Z,7.90
2018-05-10T03:20:57.083Z,12.37
2018-05-10T03:23:27.592Z,9.20
2018-05-10T03:25:58.464Z,9.13
2018-05-10T03:28:28.880Z,12.37
2018-05-10T03:30:59.632Z,15.03
2018-05-10T03:33:29.445Z,9.80
2018-05-10T03:36:00.589Z,13.33
2018-05-10T03:38:31.531Z,10.53
2018-05-10T03:41:01.583Z,15.03
2018-05-10T03:43:31.656Z,27.83
2018-05-10T03:46:02.040Z,40.83
2018-05-10T03:48:33.407Z,40.50
2018-05-10T03:51:03.439Z,44.00
2018-05-10T03:53:33.177Z,44.13
2018-05-10T03:56:03.889Z,46.83
2018-05-10T03:58:34.942Z,51.73
2018-05-10T04:01:05.055Z,51.50
2018-05-10T04:03:43.984Z,51.17
2018-05-10T04:10:32.255Z,48.70
2018-05-10T04:13:01.952Z,54.83
2018-05-10T04:15:33.602Z,50.93
2018-05-10T04:18:03.929Z,49.90
2018-05-10T04:20:35.345Z,51.43
2018-05-10T04:23:06.024Z,51.63
2018-05-10T04:25:37.292Z,52.03
2018-05-10T04:28:08.127Z,48.87
2018-05-10T04:30:38.644Z,45.63
2018-05-10T04:33:10.088Z,45.00
2018-05-10T04:35:40.269Z,49.67
2018-05-10T04:38:10.036Z,51.83
2018-05-10T04:40:40.149Z,54.57
2018-05-10T04:43:11.165Z,48.23
2018-05-10T04:45:42.232Z,37.33
2018-05-10T04:48:12.775Z,30.20
2018-05-10T04:50:42.880Z,31.63
2018-05-10T04:53:13.003Z,38.27
2018-05-10T04:55:45.052Z,30.37
2018-05-10T04:58:14.839Z,27.90
2018-05-10T05:00:45.632Z,28.60
2018-05-10T05:03:16.818Z,28.80
2018-05-10T05:05:46.883Z,27.97
2018-05-10T05:08:19.433Z,30.30
2018-05-10T05:10:51.219Z,32.00
2018-05-10T05:13:21.283Z,37.73
2018-05-10T05:15:52.576Z,39.57
2018-05-10T05:18:22.288Z,47.53
2018-05-10T05:20:52.000Z,46.90
2018-05-10T05:23:22.128Z,49.03
2018-05-10T05:25:55.452Z,49.40
2018-05-10T05:28:25.894Z,61.10
2018-05-10T05:30:56.360Z,57.37
2018-05-10T05:33:26.149Z,63.70
2018-05-10T05:35:56.180Z,62.20
2018-05-10T05:38:26.839Z,65.43
2018-05-10T05:40:57.605Z,63.70
2018-05-10T05:43:27.944Z,64.20
2018-05-10T05:45:59.114Z,60.20
2018-05-10T05:48:30.137Z,59.83
2018-05-10T05:51:02.371Z,58.77
2018-05-10T05:53:32.896Z,59.70
2018-05-10T05:56:03.625Z,57.27
2018-05-10T05:58:33.729Z,55.70
2018-05-10T06:01:04.422Z,57.10
2018-05-10T06:03:34.487Z,58.50
2018-05-10T06:06:05.928Z,55.80
2018-05-10T06:08:36.063Z,58.40
2018-05-10T06:11:06.185Z,54.97
2018-05-10T06:13:36.216Z,51.80
2018-05-10T06:16:07.405Z,56.90
2018-05-10T06:18:37.454Z,58.73
2018-05-10T06:21:08.396Z,53.33
2018-05-10T06:23:38.162Z,53.27
2018-05-10T06:26:08.240Z,49.90
2018-05-10T06:28:38.916Z,52.27
2018-05-10T06:31:09.507Z,53.07
2018-05-10T06:33:39.824Z,51.10
2018-05-10T06:36:12.516Z,54.23
2018-05-10T06:38:42.611Z,50.27
2018-05-10T06:41:12.747Z,50.93
2018-05-10T06:43:43.636Z,49.83
2018-05-10T06:46:14.774Z,49.93
2018-05-10T06:48:45.454Z,50.60
2018-05-10T06:51:16.296Z,50.20
2018-05-10T06:53:47.080Z,56.40
2018-05-10T06:56:17.921Z,50.27
2018-05-10T06:58:47.628Z,47.47
2018-05-10T07:01:17.339Z,46.10
2018-05-10T07:03:48.231Z,47.20
2018-05-10T07:06:19.683Z,43.97
2018-05-10T07:08:51.575Z,43.03
2018-05-10T07:11:21.656Z,40.33
2018-05-10T07:13:51.707Z,42.37
2018-05-10T07:16:22.406Z,42.47
2018-05-10T07:18:55.300Z,41.43
2018-05-10T07:21:25.927Z,38.57
2018-05-10T07:23:56.555Z,38.27
2018-05-10T07:26:27.495Z,36.07
2018-05-10T07:28:58.559Z,38.07
2018-05-10T07:31:29.904Z,36.80
2018-05-10T07:34:00.363Z,35.83
2018-05-10T07:36:31.161Z,34.33
2018-05-10T07:39:00.867Z,35.50
2018-05-10T07:41:30.568Z,36.30
2018-05-10T07:44:01.370Z,42.13
2018-05-10T07:46:31.485Z,38.17
2018-05-10T07:49:01.590Z,37.80
2018-05-10T07:51:31.667Z,37.57
2018-05-10T07:54:01.789Z,37.10
2018-05-10T07:56:31.915Z,41.47
2018-05-10T07:59:06.993Z,33.93
2018-05-10T08:01:37.117Z,35.10
2018-05-10T08:04:07.193Z,36.50
2018-05-10T08:06:37.287Z,34.77
2018-05-10T08:09:07.430Z,35.97
2018-05-10T08:11:37.518Z,33.43
2018-05-10T08:14:07.592Z,35.93
2018-05-10T08:16:37.759Z,36.97
2018-05-10T08:19:07.839Z,36.63
2018-05-10T08:21:38.078Z,36.90
2018-05-10T08:24:08.143Z,33.80
2018-05-10T08:26:37.856Z,35.03
2018-05-10T08:29:07.926Z,36.63
2018-05-10T08:31:38.010Z,32.53
2018-05-10T08:34:08.115Z,34.63
2018-05-10T08:36:38.252Z,30.57
2018-05-10T08:39:08.243Z,34.10
2018-05-10T08:41:38.478Z,36.53
2018-05-10T08:44:08.599Z,31.13
2018-05-10T08:46:38.640Z,34.77
2018-05-10T08:49:08.772Z,36.20
2018-05-10T08:51:38.957Z,34.00
2018-05-10T08:54:09.309Z,30.67
2018-05-10T08:56:39.695Z,28.97
2018-05-10T08:59:09.789Z,33.87
2018-05-10T09:01:39.856Z,31.67
2018-05-10T09:04:09.968Z,33.23
2018-05-10T09:06:40.091Z,31.27
2018-05-10T09:09:10.179Z,28.27
2018-05-10T09:11:40.212Z,30.17
2018-05-10T09:14:10.264Z,27.43
2018-05-10T09:16:40.332Z,29.83
2018-05-10T09:19:10.076Z,27.00
2018-05-10T09:21:40.477Z,28.80
2018-05-10T09:24:10.540Z,26.13
2018-05-10T09:26:41.925Z,27.57
2018-05-10T09:29:16.654Z,29.67
2018-05-10T09:31:47.048Z,32.70
2018-05-10T09:34:17.158Z,28.63
2018-05-10T09:36:47.251Z,29.53
2018-05-10T09:39:27.611Z,29.40
2018-05-10T09:41:57.857Z,29.67
2018-05-10T09:44:28.625Z,28.00
2018-05-10T09:46:58.716Z,27.73
2018-05-10T09:49:28.838Z,28.20
2018-05-10T09:51:59.312Z,27.37
2018-05-10T09:54:29.398Z,29.07
2018-05-10T09:56:59.092Z,28.73
2018-05-10T09:59:29.211Z,29.60
2018-05-10T10:01:59.936Z,28.90
2018-05-10T10:04:30.068Z,25.33
2018-05-10T10:06:59.776Z,26.33
2018-05-10T10:09:29.920Z,23.53
2018-05-10T10:11:59.364Z,28.10
2018-05-10T10:14:30.071Z,29.93
2018-05-10T10:17:00.501Z,27.60
2018-05-10T10:19:30.772Z,27.07
2018-05-10T10:22:01.293Z,26.47
2018-05-10T10:24:31.436Z,28.33
2018-05-10T10:27:02.103Z,26.87
2018-05-10T10:29:32.417Z,29.47
2018-05-10T10:32:02.536Z,27.70
2018-05-10T10:34:32.657Z,31.77
2018-05-10T10:37:02.855Z,32.77
2018-05-10T10:39:32.992Z,36.97
2018-05-10T10:42:03.353Z,32.57
2018-05-10T10:44:33.423Z,31.43
2018-05-10T10:47:03.547Z,33.57
2018-05-10T10:49:33.920Z,29.90
2018-05-10T10:52:05.801Z,25.73
2018-05-10T10:54:36.329Z,28.30
2018-05-10T10:57:06.768Z,25.27
2018-05-10T10:59:36.904Z,23.73
2018-05-10T11:02:07.040Z,24.93
2018-05-10T11:04:37.240Z,21.43
2018-05-10T11:07:07.400Z,19.60
2018-05-10T11:09:37.500Z,18.63
2018-05-10T11:12:07.612Z,18.63
2018-05-10T11:14:37.748Z,18.33
2018-05-10T11:17:07.854Z,17.57
2018-05-10T11:19:37.972Z,21.90
2018-05-10T11:22:08.016Z,17.40
2018-05-10T11:24:38.104Z,16.37
2018-05-10T11:27:08.216Z,16.77
2018-05-10T11:29:38.335Z,14.33
2018-05-10T11:32:08.460Z,23.13
2018-05-10T11:34:38.688Z,11.90
2018-05-10T11:37:09.364Z,15.63
2018-05-10T11:39:39.436Z,15.10
2018-05-10T11:42:20.761Z,14.43
2018-05-10T11:44:50.896Z,14.73
2018-05-10T11:47:20.964Z,14.00
2018-05-10T11:49:51.093Z,13.40
2018-05-10T11:52:21.136Z,14.77
2018-05-10T11:54:51.251Z,14.17
2018-05-10T11:57:21.371Z,14.77
2018-05-10T11:59:51.648Z,15.90
2018-05-10T12:02:21.700Z,16.63
2018-05-10T12:04:51.780Z,15.30
2018-05-10T12:07:21.948Z,18.70
2018-05-10T12:09:52.713Z,16.27
2018-05-10T12:12:22.886Z,15.77
2018-05-10T12:14:53.116Z,17.70
2018-05-10T12:17:24.349Z,17.07
2018-05-10T12:19:54.678Z,18.43
2018-05-10T12:22:24.861Z,17.90
2018-05-10T12:24:55.031Z,20.63
2018-05-10T12:27:25.092Z,24.77
2018-05-10T12:30:01.423Z,22.83
2018-05-10T12:32:31.650Z,23.60
2018-05-10T12:35:01.865Z,23.97
2018-05-10T12:37:32.791Z,27.13
2018-05-10T12:40:02.561Z,25.13
2018-05-10T12:42:32.790Z,25.07
2018-05-10T12:45:02.933Z,23.50
2018-05-10T12:47:33.556Z,26.20
2018-05-10T12:50:03.755Z,26.97
2018-05-10T12:52:33.873Z,25.33
2018-05-10T12:55:04.035Z,28.97
2018-05-10T12:57:39.493Z,27.87
2018-05-10T13:00:09.761Z,28.23
2018-05-10T13:02:39.911Z,27.67
2018-05-10T13:05:10.153Z,27.97
2018-05-10T13:07:40.385Z,29.27
2018-05-10T13:10:10.652Z,26.37
2018-05-10T13:12:40.773Z,29.00
2018-05-10T13:15:11.094Z,31.07
2018-05-10T13:17:41.471Z,25.43
2018-05-10T13:20:11.696Z,26.63
2018-05-10T13:22:41.812Z,26.43
2018-05-10T13:25:12.329Z,25.90
2018-05-10T13:27:42.663Z,26.00
2018-05-10T13:30:12.883Z,22.30
2018-05-10T13:32:43.180Z,27.80
2018-05-10T13:35:13.280Z,24.03
2018-05-10T13:37:45.488Z,30.10
2018-05-10T13:40:15.625Z,24.37
2018-05-10T13:42:56.592Z,22.73
2018-05-10T13:45:27.325Z,17.90
2018-05-10T13:47:57.707Z,18.73
2018-05-10T13:50:27.784Z,16.53
2018-05-10T13:53:01.112Z,12.50
2018-05-10T13:55:31.292Z,11.97
2018-05-10T13:58:03.457Z,11.97
2018-05-10T14:00:33.632Z,11.23
2018-05-10T14:03:03.751Z,8.73
2018-05-10T14:05:33.849Z,9.90
2018-05-10T14:08:03.966Z,8.37
2018-05-10T14:10:34.073Z,9.77
2018-05-10T14:13:06.550Z,8.50
2018-05-10T14:15:36.760Z,8.47
2018-05-10T14:18:06.877Z,9.57
2018-05-10T14:20:37.927Z,9.20
2018-05-10T14:23:09.060Z,7.00
2018-05-10T14:25:38.826Z,8.77
2018-05-10T14:28:11.566Z,8.57
2018-05-10T14:30:41.681Z,9.70
2018-05-10T14:33:11.814Z,7.40
2018-05-10T14:35:41.926Z,10.97
2018-05-10T14:38:12.684Z,6.73
2018-05-10T14:40:42.878Z,8.40
2018-05-10T14:43:14.224Z,8.57
2018-05-10T14:45:59.487Z,6.67
2018-05-10T14:48:29.748Z,7.33
2018-05-10T14:51:02.596Z,9.77
2018-05-10T14:53:33.123Z,11.07
2018-05-10T14:56:03.247Z,8.40
2018-05-10T14:58:35.151Z,7.07
2018-05-10T15:01:05.347Z,8.80
2018-05-10T15:03:35.521Z,7.57
2018-05-10T15:06:05.684Z,10.47
2018-05-10T15:08:35.804Z,9.47
2018-05-10T15:11:06.123Z,9.80
2018-05-10T15:13:36.887Z,8.83
2018-05-10T15:16:07.040Z,8.33
2018-05-10T15:18:37.712Z,9.03
2018-05-10T15:21:09.505Z,8.17
2018-05-10T15:23:42.243Z,9.53
2018-05-10T15:26:13.010Z,7.20
2018-05-10T15:28:43.525Z,10.17
2018-05-10T15:31:14.624Z,10.03
2018-05-10T15:33:45.561Z,8.67
2018-05-10T15:36:21.822Z,13.33
2018-05-10T15:38:51.904Z,11.00
2018-05-10T15:41:22.648Z,9.60
2018-05-10T15:43:52.828Z,12.70
2018-05-10T15:46:23.936Z,15.63
2018-05-10T15:48:54.469Z,15.47
2018-05-10T15:51:24.603Z,9.50
2018-05-10T15:53:55.472Z,12.57
2018-05-10T15:56:30.972Z,14.20
2018-05-10T15:59:00.998Z,8.90
2018-05-10T16:01:31.113Z,11.43
2018-05-10T16:04:01.184Z,10.60
2018-05-10T16:06:31.302Z,12.33
2018-05-10T16:09:01.045Z,12.87
2018-05-10T16:11:33.768Z,15.20
2018-05-10T16:14:04.840Z,12.97
2018-05-10T16:16:35.671Z,18.80
2018-05-10T16:19:06.046Z,10.63
2018-05-10T16:21:36.214Z,13.63
2018-05-10T16:24:07.472Z,14.07
2018-05-10T16:26:37.675Z,13.33
2018-05-10T16:29:07.819Z,14.87
2018-05-10T16:31:38.752Z,17.63
2018-05-10T16:34:08.859Z,9.73
2018-05-10T16:36:39.704Z,15.03
2018-05-10T16:39:09.932Z,13.03
2018-05-10T16:41:40.100Z,17.10
2018-05-10T16:44:10.792Z,13.17
2018-05-10T16:46:41.009Z,15.50
2018-05-10T16:49:12.048Z,14.13
2018-05-10T16:51:42.988Z,14.87
2018-05-10T16:54:13.697Z,13.23
2018-05-10T16:56:44.316Z,14.57
2018-05-10T16:59:14.739Z,14.17
2018-05-10T17:01:46.128Z,14.30
2018-05-10T17:04:18.193Z,17.83
2018-05-10T17:07:00.852Z,14.53
2018-05-10T17:09:31.338Z,16.20
2018-05-10T17:12:01.404Z,13.40
2018-05-10T17:14:32.239Z,17.23
2018-05-10T17:17:02.320Z,14.27
2018-05-10T17:19:32.242Z,15.90
2018-05-10T17:22:02.395Z,19.43
2018-05-10T17:24:32.581Z,16.17
2018-05-10T17:27:02.279Z,12.07
2018-05-10T17:29:32.004Z,14.83
2018-05-10T17:32:02.947Z,13.67
2018-05-10T17:34:33.161Z,12.53
2018-05-10T17:37:03.360Z,14.13
2018-05-10T17:39:33.548Z,12.70
2018-05-10T17:42:03.740Z,14.50
2018-05-10T17:44:33.868Z,14.73
2018-05-10T17:47:04.689Z,14.30
2018-05-10T17:49:34.797Z,12.33
2018-05-10T17:52:05.007Z,12.73
2018-05-10T17:54:35.508Z,13.70
2018-05-10T17:57:05.841Z,12.07
2018-05-10T17:59:36.098Z,13.20
2018-05-10T18:02:06.213Z,16.10
2018-05-10T18:04:36.386Z,13.03
2018-05-10T18:07:06.565Z,15.23
2018-05-10T18:09:36.843Z,23.77
2018-05-10T18:12:06.718Z,15.50
2018-05-10T18:14:36.907Z,10.27
2018-05-10T18:17:08.029Z,14.93
2018-05-10T18:19:38.585Z,14.20
2018-05-10T18:22:08.869Z,12.30
2018-05-10T18:24:39.145Z,18.33
2018-05-10T18:27:09.271Z,17.10
2018-05-10T18:29:39.384Z,16.93
2018-05-10T18:32:09.523Z,15.27
2018-05-10T18:34:39.672Z,18.53
2018-05-10T18:37:09.952Z,14.03
2018-05-10T18:39:40.170Z,14.10
2018-05-10T18:42:10.292Z,15.90
2018-05-10T18:44:40.460Z,19.10
2018-05-10T18:47:10.639Z,16.80
2018-05-10T18:49:40.961Z,16.37
2018-05-10T18:52:11.104Z,17.10
2018-05-10T18:54:41.305Z,15.83
2018-05-10T18:57:11.476Z,15.33
2018-05-10T18:59:41.649Z,13.27
2018-05-10T19:02:12.068Z,14.33
2018-05-10T19:04:42.397Z,15.83
2018-05-10T19:07:12.819Z,14.83
2018-05-10T19:09:42.940Z,16.40
2018-05-10T19:12:13.148Z,14.33
2018-05-10T19:14:43.871Z,15.37
2018-05-10T19:17:14.122Z,16.23
2018-05-10T19:19:44.261Z,21.00
2018-05-10T19:22:14.156Z,15.33
2018-05-10T19:24:44.385Z,16.57
2018-05-10T19:27:14.498Z,17.27
2018-05-10T19:29:44.739Z,26.63
2018-05-10T19:32:15.051Z,20.30
2018-05-10T19:34:44.778Z,15.23
2018-05-10T19:37:14.678Z,14.03
2018-05-10T19:39:44.796Z,15.47
2018-05-10T19:42:14.916Z,18.23
2018-05-10T19:44:45.085Z,21.47
2018-05-10T19:47:15.252Z,19.73
2018-05-10T19:49:45.388Z,18.37
2018-05-10T19:52:15.548Z,18.33
2018-05-10T19:54:46.982Z,19.13
2018-05-10T19:57:17.084Z,16.47
2018-05-10T19:59:47.472Z,17.87
2018-05-10T20:02:18.252Z,20.83
2018-05-10T20:04:48.656Z,19.13
2018-05-10T20:07:18.526Z,18.00
2018-05-10T20:09:48.270Z,20.47
2018-05-10T20:12:18.691Z,20.60
2018-05-10T20:14:48.824Z,22.10
2018-05-10T20:17:18.967Z,21.30
2018-05-10T20:19:49.612Z,17.40
2018-05-10T20:22:19.741Z,21.50
2018-05-10T20:24:49.860Z,22.73
2018-05-10T20:27:20.043Z,19.97
2018-05-10T20:29:50.457Z,18.80
2018-05-10T20:32:20.656Z,19.07
2018-05-10T20:34:50.813Z,18.30
2018-05-10T20:37:21.025Z,17.17
2018-05-10T20:39:50.440Z,19.43
2018-05-10T20:42:20.556Z,19.73
2018-05-10T20:44:50.801Z,17.47
2018-05-10T20:47:20.906Z,16.70
2018-05-10T20:49:51.023Z,15.57
2018-05-10T20:52:21.130Z,19.53
2018-05-10T20:54:51.260Z,17.77
2018-05-10T20:57:21.368Z,19.27
2018-05-10T20:59:51.062Z,19.53
2018-05-10T21:02:21.136Z,20.47
2018-05-10T21:04:51.219Z,20.70
2018-05-10T21:07:20.955Z,20.13
2018-05-10T21:09:51.215Z,19.33
2018-05-10T21:12:30.097Z,21.80
2018-05-10T21:15:00.412Z,20.23
2018-05-10T21:17:30.503Z,18.03
2018-05-10T21:20:00.576Z,16.60
2018-05-10T21:22:30.468Z,20.00
2018-05-10T21:25:01.496Z,19.87
2018-05-10T21:27:31.636Z,19.33
2018-05-10T21:30:02.515Z,18.33
2018-05-10T21:32:32.596Z,15.83
2018-05-10T21:35:02.696Z,21.03
2018-05-10T21:37:33.515Z,18.37
2018-05-10T21:40:04.387Z,21.63
2018-05-10T21:42:34.448Z,22.17
2018-05-10T21:45:04.513Z,20.77
2018-05-10T21:47:34.585Z,19.10
2018-05-10T21:50:04.953Z,17.73
2018-05-10T21:52:35.080Z,21.13
2018-05-10T21:55:06.521Z,21.23
2018-05-10T21:57:43.098Z,18.90
2018-05-10T22:00:13.443Z,16.67
2018-05-10T22:02:43.540Z,19.37
2018-05-10T22:05:14.654Z,18.07
2018-05-10T22:07:45.334Z,18.47
2018-05-10T22:10:17.671Z,18.37
2018-05-10T22:12:48.031Z,22.50
2018-05-10T22:15:18.426Z,18.53
2018-05-10T22:17:50.727Z,19.77
2018-05-10T22:20:22.468Z,17.90
2018-05-10T22:22:53.620Z,23.37
2018-05-10T22:25:25.085Z,23.73
2018-05-10T22:27:54.840Z,19.83
2018-05-10T22:30:26.691Z,20.03
2018-05-10T22:32:58.107Z,18.67
2018-05-10T22:35:30.510Z,20.00
2018-05-10T22:38:01.534Z,18.20
2018-05-10T22:40:31.639Z,19.93
2018-05-10T22:43:01.758Z,21.97
2018-05-10T22:45:31.883Z,19.83
2018-05-10T22:48:02.045Z,18.93
2018-05-10T22:50:32.115Z,19.73
2018-05-10T22:53:01.824Z,16.40
2018-05-10T22:55:31.949Z,16.60
2018-05-10T22:58:02.067Z,28.50
2018-05-10T23:00:32.112Z,18.37
2018-05-10T23:03:02.308Z,15.50
2018-05-10T23:05:32.433Z,13.63
2018-05-10T23:08:02.644Z,13.37
2018-05-10T23:10:32.802Z,16.93
2018-05-10T23:13:02.889Z,15.37
2018-05-10T23:15:33.112Z,14.47
2018-05-10T23:18:03.229Z,14.03
2018-05-10T23:20:33.282Z,15.57
2018-05-10T23:23:03.065Z,12.80
2018-05-10T23:25:33.184Z,11.63
2018-05-10T23:28:04.246Z,13.60
2018-05-10T23:30:34.421Z,11.53
2018-05-10T23:33:05.599Z,13.20
2018-05-10T23:35:36.150Z,14.47
2018-05-10T23:38:06.963Z,13.73
2018-05-10T23:40:37.384Z,12.77
2018-05-10T23:43:07.554Z,13.63
2018-05-10T23:45:38.444Z,12.73
2018-05-10T23:48:08.159Z,11.80
2018-05-10T23:50:38.324Z,13.67
2018-05-10T23:53:08.368Z,12.83
2018-05-10T23:55:39.335Z,15.20
2018-05-10T23:58:09.453Z,17.07
